sensor_id;sensor_type;location;lat;lon;timestamp;temperature;humidity
46438;DHT22;32137;48.728;9.142;2023-06-14T00:00:39;19.30;99.90
46438;DHT22;32137;48.728;9.142;2023-06-14T00:03:06;19.20;99.90
46438;DHT22;32137;48.728;9.142;2023-06-14T00:05:35;19.30;99.90
46438;DHT22;32137;48.728;9.142;2023-06-14T00:08:06;19.40;99.90
46438;DHT22;32137;48.728;9.142;2023-06-14T00:10:33;19.50;99.90
46438;DHT22;32137;48.728;9.142;2023-06-14T00:13:03;19.40;99.90
46438;DHT22;32137;48.728;9.142;2023-06-14T00:15:31;19.20;99.90
46438;DHT22;32137;48.728;9.142;2023-06-14T00:18:00;19.10;99.90
46438;DHT22;32137;48.728;9.142;2023-06-14T00:20:29;19.10;99.90
46438;DHT22;32137;48.728;9.142;2023-06-14T00:22:56;19.00;99.90
46438;DHT22;32137;48.728;9.142;2023-06-14T00:25:25;19.10;99.90
46438;DHT22;32137;48.728;9.142;2023-06-14T00:27:51;19.20;99.90
46438;DHT22;32137;48.728;9.142;2023-06-14T00:30:17;19.00;99.90
46438;DHT22;32137;48.728;9.142;2023-06-14T00:32:43;19.00;99.90
46438;DHT22;32137;48.728;9.142;2023-06-14T00:35:09;18.80;99.90
46438;DHT22;32137;48.728;9.142;2023-06-14T00:37:35;18.80;99.90
46438;DHT22;32137;48.728;9.142;2023-06-14T00:40:01;18.70;99.90
46438;DHT22;32137;48.728;9.142;2023-06-14T00:42:27;18.70;99.90
46438;DHT22;32137;48.728;9.142;2023-06-14T00:44:53;18.60;99.90
46438;DHT22;32137;48.728;9.142;2023-06-14T00:47:19;18.60;99.90
46438;DHT22;32137;48.728;9.142;2023-06-14T00:49:46;18.60;99.90
46438;DHT22;32137;48.728;9.142;2023-06-14T00:52:13;18.50;99.90
46438;DHT22;32137;48.728;9.142;2023-06-14T00:54:40;18.50;99.90
46438;DHT22;32137;48.728;9.142;2023-06-14T00:57:06;18.50;99.90
46438;DHT22;32137;48.728;9.142;2023-06-14T00:59:33;18.50;99.90
46438;DHT22;32137;48.728;9.142;2023-06-14T01:01:58;18.50;99.90
46438;DHT22;32137;48.728;9.142;2023-06-14T01:04:24;18.40;99.90
46438;DHT22;32137;48.728;9.142;2023-06-14T01:06:59;18.40;99.90
46438;DHT22;32137;48.728;9.142;2023-06-14T01:09:44;18.40;99.90
46438;DHT22;32137;48.728;9.142;2023-06-14T01:12:35;18.40;99.90
46438;DHT22;32137;48.728;9.142;2023-06-14T01:15:02;18.30;99.90
46438;DHT22;32137;48.728;9.142;2023-06-14T01:17:29;18.20;99.90
46438;DHT22;32137;48.728;9.142;2023-06-14T01:20:01;18.10;99.90
46438;DHT22;32137;48.728;9.142;2023-06-14T01:22:27;18.20;99.90
46438;DHT22;32137;48.728;9.142;2023-06-14T01:24:54;18.10;99.90
46438;DHT22;32137;48.728;9.142;2023-06-14T01:27:22;18.00;99.90
46438;DHT22;32137;48.728;9.142;2023-06-14T01:29:53;18.00;99.90
46438;DHT22;32137;48.728;9.142;2023-06-14T01:32:23;17.80;99.90
46438;DHT22;32137;48.728;9.142;2023-06-14T01:34:49;17.90;99.90
46438;DHT22;32137;48.728;9.142;2023-06-14T01:37:15;17.90;99.90
46438;DHT22;32137;48.728;9.142;2023-06-14T01:39:43;17.80;99.90
46438;DHT22;32137;48.728;9.142;2023-06-14T01:42:09;17.70;99.90
46438;DHT22;32137;48.728;9.142;2023-06-14T01:44:37;17.70;99.90
46438;DHT22;32137;48.728;9.142;2023-06-14T01:47:02;17.60;99.90
46438;DHT22;32137;48.728;9.142;2023-06-14T01:49:28;17.70;99.90
46438;DHT22;32137;48.728;9.142;2023-06-14T01:51:53;17.70;99.90
46438;DHT22;32137;48.728;9.142;2023-06-14T01:54:19;17.70;99.90
46438;DHT22;32137;48.728;9.142;2023-06-14T01:56:45;17.70;99.90
46438;DHT22;32137;48.728;9.142;2023-06-14T01:59:10;17.70;99.90
46438;DHT22;32137;48.728;9.142;2023-06-14T02:01:36;17.60;99.90
46438;DHT22;32137;48.728;9.142;2023-06-14T02:04:01;17.50;99.90
46438;DHT22;32137;48.728;9.142;2023-06-14T02:06:27;17.50;99.90
46438;DHT22;32137;48.728;9.142;2023-06-14T02:08:53;17.50;99.90
46438;DHT22;32137;48.728;9.142;2023-06-14T02:11:19;17.50;99.90
46438;DHT22;32137;48.728;9.142;2023-06-14T02:13:44;17.50;99.90
46438;DHT22;32137;48.728;9.142;2023-06-14T02:16:10;17.50;99.90
46438;DHT22;32137;48.728;9.142;2023-06-14T02:18:36;17.40;99.90
46438;DHT22;32137;48.728;9.142;2023-06-14T02:21:02;17.40;99.90
46438;DHT22;32137;48.728;9.142;2023-06-14T02:23:27;17.30;99.90
46438;DHT22;32137;48.728;9.142;2023-06-14T02:25:53;17.30;99.90
46438;DHT22;32137;48.728;9.142;2023-06-14T02:28:18;17.30;99.90
46438;DHT22;32137;48.728;9.142;2023-06-14T02:30:44;17.30;99.90
46438;DHT22;32137;48.728;9.142;2023-06-14T02:33:09;17.30;99.90
46438;DHT22;32137;48.728;9.142;2023-06-14T02:35:38;17.20;99.90
46438;DHT22;32137;48.728;9.142;2023-06-14T02:38:03;17.20;99.90
46438;DHT22;32137;48.728;9.142;2023-06-14T02:40:29;17.10;99.90
46438;DHT22;32137;48.728;9.142;2023-06-14T02:42:55;17.10;99.90
46438;DHT22;32137;48.728;9.142;2023-06-14T02:45:20;17.10;99.90
46438;DHT22;32137;48.728;9.142;2023-06-14T02:47:46;17.00;99.90
46438;DHT22;32137;48.728;9.142;2023-06-14T02:50:12;17.00;99.90
46438;DHT22;32137;48.728;9.142;2023-06-14T02:52:37;17.10;99.90
46438;DHT22;32137;48.728;9.142;2023-06-14T02:55:03;17.10;99.90
46438;DHT22;32137;48.728;9.142;2023-06-14T02:57:30;17.10;99.90
46438;DHT22;32137;48.728;9.142;2023-06-14T02:59:55;17.00;99.90
46438;DHT22;32137;48.728;9.142;2023-06-14T03:02:21;17.10;99.90
46438;DHT22;32137;48.728;9.142;2023-06-14T03:04:46;17.10;99.90
46438;DHT22;32137;48.728;9.142;2023-06-14T03:07:12;17.00;99.90
46438;DHT22;32137;48.728;9.142;2023-06-14T03:09:39;17.00;99.90
46438;DHT22;32137;48.728;9.142;2023-06-14T03:12:06;17.00;99.90
46438;DHT22;32137;48.728;9.142;2023-06-14T03:14:35;17.00;99.90
46438;DHT22;32137;48.728;9.142;2023-06-14T03:17:01;16.80;99.90
46438;DHT22;32137;48.728;9.142;2023-06-14T03:19:26;16.80;99.90
46438;DHT22;32137;48.728;9.142;2023-06-14T03:21:52;16.80;99.90
46438;DHT22;32137;48.728;9.142;2023-06-14T03:24:19;16.70;99.90
46438;DHT22;32137;48.728;9.142;2023-06-14T03:26:45;16.70;99.90
46438;DHT22;32137;48.728;9.142;2023-06-14T03:29:10;16.70;99.90
46438;DHT22;32137;48.728;9.142;2023-06-14T03:31:41;16.70;99.90
46438;DHT22;32137;48.728;9.142;2023-06-14T03:34:06;16.70;99.90
46438;DHT22;32137;48.728;9.142;2023-06-14T03:36:32;16.70;99.90
46438;DHT22;32137;48.728;9.142;2023-06-14T03:38:58;16.70;99.90
46438;DHT22;32137;48.728;9.142;2023-06-14T03:41:24;16.60;99.90
46438;DHT22;32137;48.728;9.142;2023-06-14T03:43:50;16.50;99.90
46438;DHT22;32137;48.728;9.142;2023-06-14T03:46:16;16.50;99.90
46438;DHT22;32137;48.728;9.142;2023-06-14T03:48:41;16.50;99.90
46438;DHT22;32137;48.728;9.142;2023-06-14T03:51:07;16.40;99.90
46438;DHT22;32137;48.728;9.142;2023-06-14T03:53:32;16.40;99.90
46438;DHT22;32137;48.728;9.142;2023-06-14T03:55:58;16.40;99.90
46438;DHT22;32137;48.728;9.142;2023-06-14T03:58:25;16.40;99.90
46438;DHT22;32137;48.728;9.142;2023-06-14T04:00:50;16.40;99.90
46438;DHT22;32137;48.728;9.142;2023-06-14T04:03:16;16.30;99.90
46438;DHT22;32137;48.728;9.142;2023-06-14T04:05:42;16.30;99.90
46438;DHT22;32137;48.728;9.142;2023-06-14T04:08:08;16.40;99.90
46438;DHT22;32137;48.728;9.142;2023-06-14T04:10:40;16.30;99.90
46438;DHT22;32137;48.728;9.142;2023-06-14T04:13:05;16.40;99.90
46438;DHT22;32137;48.728;9.142;2023-06-14T04:15:32;16.40;99.90
46438;DHT22;32137;48.728;9.142;2023-06-14T04:17:58;16.40;99.90
46438;DHT22;32137;48.728;9.142;2023-06-14T04:20:24;16.40;99.90
46438;DHT22;32137;48.728;9.142;2023-06-14T04:22:50;16.50;99.90
46438;DHT22;32137;48.728;9.142;2023-06-14T04:25:16;16.50;99.90
46438;DHT22;32137;48.728;9.142;2023-06-14T04:27:42;16.60;99.90
46438;DHT22;32137;48.728;9.142;2023-06-14T04:30:08;16.60;99.90
46438;DHT22;32137;48.728;9.142;2023-06-14T04:32:34;16.60;99.90
46438;DHT22;32137;48.728;9.142;2023-06-14T04:35:04;16.50;99.90
46438;DHT22;32137;48.728;9.142;2023-06-14T04:37:30;16.60;99.90
46438;DHT22;32137;48.728;9.142;2023-06-14T04:39:56;16.60;99.90
46438;DHT22;32137;48.728;9.142;2023-06-14T04:42:22;16.60;99.90
46438;DHT22;32137;48.728;9.142;2023-06-14T04:44:50;16.70;99.90
46438;DHT22;32137;48.728;9.142;2023-06-14T04:47:17;16.70;99.90
46438;DHT22;32137;48.728;9.142;2023-06-14T04:49:42;16.70;99.90
46438;DHT22;32137;48.728;9.142;2023-06-14T04:52:08;16.70;99.90
46438;DHT22;32137;48.728;9.142;2023-06-14T04:54:38;16.70;99.90
46438;DHT22;32137;48.728;9.142;2023-06-14T04:57:07;16.70;99.90
46438;DHT22;32137;48.728;9.142;2023-06-14T04:59:34;16.80;99.90
46438;DHT22;32137;48.728;9.142;2023-06-14T05:02:01;16.80;99.90
46438;DHT22;32137;48.728;9.142;2023-06-14T05:04:26;16.80;99.90
46438;DHT22;32137;48.728;9.142;2023-06-14T05:06:53;16.80;99.90
46438;DHT22;32137;48.728;9.142;2023-06-14T05:09:20;16.80;99.90
46438;DHT22;32137;48.728;9.142;2023-06-14T05:11:46;16.80;99.90
46438;DHT22;32137;48.728;9.142;2023-06-14T05:14:13;16.90;99.90
46438;DHT22;32137;48.728;9.142;2023-06-14T05:16:39;16.90;99.90
46438;DHT22;32137;48.728;9.142;2023-06-14T05:19:05;16.90;99.90
46438;DHT22;32137;48.728;9.142;2023-06-14T05:21:31;16.90;99.90
46438;DHT22;32137;48.728;9.142;2023-06-14T05:23:59;16.90;99.90
46438;DHT22;32137;48.728;9.142;2023-06-14T05:26:24;16.90;99.90
46438;DHT22;32137;48.728;9.142;2023-06-14T05:28:57;17.00;99.90
46438;DHT22;32137;48.728;9.142;2023-06-14T05:31:26;17.00;99.90
46438;DHT22;32137;48.728;9.142;2023-06-14T05:33:52;17.00;99.90
46438;DHT22;32137;48.728;9.142;2023-06-14T05:36:19;17.00;99.90
46438;DHT22;32137;48.728;9.142;2023-06-14T05:38:45;17.00;99.90
46438;DHT22;32137;48.728;9.142;2023-06-14T05:41:11;17.00;99.90
46438;DHT22;32137;48.728;9.142;2023-06-14T05:43:36;17.10;99.90
46438;DHT22;32137;48.728;9.142;2023-06-14T05:46:02;17.10;99.90
46438;DHT22;32137;48.728;9.142;2023-06-14T05:50:56;17.10;99.90
46438;DHT22;32137;48.728;9.142;2023-06-14T05:53:21;17.10;99.90
46438;DHT22;32137;48.728;9.142;2023-06-14T05:55:47;17.00;99.90
46438;DHT22;32137;48.728;9.142;2023-06-14T05:58:12;17.00;99.90
46438;DHT22;32137;48.728;9.142;2023-06-14T06:00:39;16.90;99.90
46438;DHT22;32137;48.728;9.142;2023-06-14T06:03:04;16.90;99.90
46438;DHT22;32137;48.728;9.142;2023-06-14T06:05:34;16.90;99.90
46438;DHT22;32137;48.728;9.142;2023-06-14T06:08:00;16.90;99.90
46438;DHT22;32137;48.728;9.142;2023-06-14T06:10:26;16.90;99.90
46438;DHT22;32137;48.728;9.142;2023-06-14T06:12:51;16.90;99.90
46438;DHT22;32137;48.728;9.142;2023-06-14T06:15:17;16.90;99.90
46438;DHT22;32137;48.728;9.142;2023-06-14T06:17:44;16.90;99.90
46438;DHT22;32137;48.728;9.142;2023-06-14T06:20:10;16.90;99.90
46438;DHT22;32137;48.728;9.142;2023-06-14T06:22:37;16.90;99.90
46438;DHT22;32137;48.728;9.142;2023-06-14T06:25:03;17.00;99.90
46438;DHT22;32137;48.728;9.142;2023-06-14T06:27:28;17.00;99.90
46438;DHT22;32137;48.728;9.142;2023-06-14T06:29:54;17.00;99.90
46438;DHT22;32137;48.728;9.142;2023-06-14T06:32:20;17.00;99.90
46438;DHT22;32137;48.728;9.142;2023-06-14T06:34:45;17.00;99.90
46438;DHT22;32137;48.728;9.142;2023-06-14T06:37:11;17.00;99.90
46438;DHT22;32137;48.728;9.142;2023-06-14T06:39:37;17.00;99.90
46438;DHT22;32137;48.728;9.142;2023-06-14T06:42:02;17.10;99.90
46438;DHT22;32137;48.728;9.142;2023-06-14T06:44:28;17.10;99.90
46438;DHT22;32137;48.728;9.142;2023-06-14T06:46:54;17.20;99.90
46438;DHT22;32137;48.728;9.142;2023-06-14T06:49:20;17.20;99.90
46438;DHT22;32137;48.728;9.142;2023-06-14T06:52:03;17.20;99.90
46438;DHT22;32137;48.728;9.142;2023-06-14T06:54:29;17.30;99.90
46438;DHT22;32137;48.728;9.142;2023-06-14T06:56:55;17.30;99.90
46438;DHT22;32137;48.728;9.142;2023-06-14T06:59:21;17.30;99.90
46438;DHT22;32137;48.728;9.142;2023-06-14T07:01:46;17.30;99.90
46438;DHT22;32137;48.728;9.142;2023-06-14T07:04:13;17.30;99.90
46438;DHT22;32137;48.728;9.142;2023-06-14T07:06:39;17.40;99.90
46438;DHT22;32137;48.728;9.142;2023-06-14T07:09:04;17.40;99.90
46438;DHT22;32137;48.728;9.142;2023-06-14T07:11:33;17.40;99.90
46438;DHT22;32137;48.728;9.142;2023-06-14T07:13:59;17.40;99.90
46438;DHT22;32137;48.728;9.142;2023-06-14T07:16:25;17.40;99.90
46438;DHT22;32137;48.728;9.142;2023-06-14T07:18:51;17.50;99.90
46438;DHT22;32137;48.728;9.142;2023-06-14T07:21:17;17.50;99.90
46438;DHT22;32137;48.728;9.142;2023-06-14T07:23:43;17.50;99.90
46438;DHT22;32137;48.728;9.142;2023-06-14T07:26:08;17.50;99.90
46438;DHT22;32137;48.728;9.142;2023-06-14T07:28:34;17.60;99.90
46438;DHT22;32137;48.728;9.142;2023-06-14T07:31:00;17.60;99.90
46438;DHT22;32137;48.728;9.142;2023-06-14T07:33:25;17.60;99.90
46438;DHT22;32137;48.728;9.142;2023-06-14T07:35:51;17.60;99.90
46438;DHT22;32137;48.728;9.142;2023-06-14T07:38:18;17.60;99.90
46438;DHT22;32137;48.728;9.142;2023-06-14T07:40:43;17.70;99.90
46438;DHT22;32137;48.728;9.142;2023-06-14T07:43:09;17.70;99.90
46438;DHT22;32137;48.728;9.142;2023-06-14T07:45:34;17.70;99.90
46438;DHT22;32137;48.728;9.142;2023-06-14T07:48:00;17.70;99.90
46438;DHT22;32137;48.728;9.142;2023-06-14T07:50:26;17.80;99.90
46438;DHT22;32137;48.728;9.142;2023-06-14T07:52:51;17.80;99.90
46438;DHT22;32137;48.728;9.142;2023-06-14T07:55:17;17.80;99.90
46438;DHT22;32137;48.728;9.142;2023-06-14T07:57:43;17.90;99.90
46438;DHT22;32137;48.728;9.142;2023-06-14T08:00:10;17.90;99.90
46438;DHT22;32137;48.728;9.142;2023-06-14T08:02:43;18.00;99.90
46438;DHT22;32137;48.728;9.142;2023-06-14T08:05:10;18.00;99.90
46438;DHT22;32137;48.728;9.142;2023-06-14T08:07:39;18.00;99.90
46438;DHT22;32137;48.728;9.142;2023-06-14T08:10:06;18.10;99.90
46438;DHT22;32137;48.728;9.142;2023-06-14T08:12:33;18.10;99.90
46438;DHT22;32137;48.728;9.142;2023-06-14T08:14:59;18.10;99.90
46438;DHT22;32137;48.728;9.142;2023-06-14T08:17:24;18.20;99.90
46438;DHT22;32137;48.728;9.142;2023-06-14T08:19:50;18.20;99.90
46438;DHT22;32137;48.728;9.142;2023-06-14T08:22:16;18.20;99.90
46438;DHT22;32137;48.728;9.142;2023-06-14T08:24:43;18.20;99.90
46438;DHT22;32137;48.728;9.142;2023-06-14T08:27:11;18.30;99.90
46438;DHT22;32137;48.728;9.142;2023-06-14T08:29:36;18.30;99.90
46438;DHT22;32137;48.728;9.142;2023-06-14T08:32:04;18.30;99.90
46438;DHT22;32137;48.728;9.142;2023-06-14T08:34:30;18.30;99.90
46438;DHT22;32137;48.728;9.142;2023-06-14T08:36:55;18.40;99.90
46438;DHT22;32137;48.728;9.142;2023-06-14T08:39:21;18.40;99.90
46438;DHT22;32137;48.728;9.142;2023-06-14T08:41:47;18.40;99.90
46438;DHT22;32137;48.728;9.142;2023-06-14T08:44:16;18.50;99.90
46438;DHT22;32137;48.728;9.142;2023-06-14T08:46:43;18.50;99.90
46438;DHT22;32137;48.728;9.142;2023-06-14T08:49:11;18.50;99.90
46438;DHT22;32137;48.728;9.142;2023-06-14T08:51:38;18.60;99.90
46438;DHT22;32137;48.728;9.142;2023-06-14T08:54:06;18.60;99.90
46438;DHT22;32137;48.728;9.142;2023-06-14T08:56:32;18.60;99.90
46438;DHT22;32137;48.728;9.142;2023-06-14T08:59:00;18.70;99.90
46438;DHT22;32137;48.728;9.142;2023-06-14T09:01:35;18.70;99.90
46438;DHT22;32137;48.728;9.142;2023-06-14T09:04:02;18.80;99.90
46438;DHT22;32137;48.728;9.142;2023-06-14T09:06:28;18.80;99.90
46438;DHT22;32137;48.728;9.142;2023-06-14T09:08:55;18.80;99.90
46438;DHT22;32137;48.728;9.142;2023-06-14T09:11:24;18.90;99.90
46438;DHT22;32137;48.728;9.142;2023-06-14T09:13:51;19.00;99.90
46438;DHT22;32137;48.728;9.142;2023-06-14T09:16:17;19.00;99.90
46438;DHT22;32137;48.728;9.142;2023-06-14T09:18:44;19.00;99.90
46438;DHT22;32137;48.728;9.142;2023-06-14T09:21:11;19.10;99.90
46438;DHT22;32137;48.728;9.142;2023-06-14T09:23:42;19.10;99.90
46438;DHT22;32137;48.728;9.142;2023-06-14T09:26:14;19.20;99.90
46438;DHT22;32137;48.728;9.142;2023-06-14T09:28:44;19.20;99.90
46438;DHT22;32137;48.728;9.142;2023-06-14T09:31:13;19.30;99.90
46438;DHT22;32137;48.728;9.142;2023-06-14T09:33:44;19.40;99.90
46438;DHT22;32137;48.728;9.142;2023-06-14T09:36:21;19.40;99.90
46438;DHT22;32137;48.728;9.142;2023-06-14T09:38:58;19.50;99.90
46438;DHT22;32137;48.728;9.142;2023-06-14T09:41:37;19.50;99.90
46438;DHT22;32137;48.728;9.142;2023-06-14T09:44:05;19.70;99.90
46438;DHT22;32137;48.728;9.142;2023-06-14T09:46:32;19.80;99.90
46438;DHT22;32137;48.728;9.142;2023-06-14T09:48:59;19.80;99.90
46438;DHT22;32137;48.728;9.142;2023-06-14T09:51:26;19.90;99.90
46438;DHT22;32137;48.728;9.142;2023-06-14T09:53:53;19.90;99.90
46438;DHT22;32137;48.728;9.142;2023-06-14T09:56:29;20.00;99.90
46438;DHT22;32137;48.728;9.142;2023-06-14T09:58:58;20.00;99.90
46438;DHT22;32137;48.728;9.142;2023-06-14T10:01:24;20.10;99.90
46438;DHT22;32137;48.728;9.142;2023-06-14T10:03:55;20.20;99.90
46438;DHT22;32137;48.728;9.142;2023-06-14T10:06:24;20.30;99.90
46438;DHT22;32137;48.728;9.142;2023-06-14T10:08:52;20.40;99.90
46438;DHT22;32137;48.728;9.142;2023-06-14T10:11:19;20.50;99.90
46438;DHT22;32137;48.728;9.142;2023-06-14T10:13:45;20.60;99.90
46438;DHT22;32137;48.728;9.142;2023-06-14T10:16:23;20.70;99.90
46438;DHT22;32137;48.728;9.142;2023-06-14T10:19:16;20.60;99.90
46438;DHT22;32137;48.728;9.142;2023-06-14T10:21:55;20.70;99.90
46438;DHT22;32137;48.728;9.142;2023-06-14T10:24:33;20.80;99.90
46438;DHT22;32137;48.728;9.142;2023-06-14T10:26:59;20.80;99.90
46438;DHT22;32137;48.728;9.142;2023-06-14T10:29:27;21.00;99.90
46438;DHT22;32137;48.728;9.142;2023-06-14T10:31:58;21.00;99.90
46438;DHT22;32137;48.728;9.142;2023-06-14T10:34:25;21.00;99.90
46438;DHT22;32137;48.728;9.142;2023-06-14T10:37:05;21.00;99.90
46438;DHT22;32137;48.728;9.142;2023-06-14T10:39:38;21.10;99.90
46438;DHT22;32137;48.728;9.142;2023-06-14T10:42:05;21.20;99.90
46438;DHT22;32137;48.728;9.142;2023-06-14T10:47:10;21.50;99.90
46438;DHT22;32137;48.728;9.142;2023-06-14T10:49:44;21.60;99.90
46438;DHT22;32137;48.728;9.142;2023-06-14T10:52:17;21.50;99.90
46438;DHT22;32137;48.728;9.142;2023-06-14T10:57:29;21.40;99.90
46438;DHT22;32137;48.728;9.142;2023-06-14T10:59:58;21.40;99.90
46438;DHT22;32137;48.728;9.142;2023-06-14T11:05:24;21.60;99.90
46438;DHT22;32137;48.728;9.142;2023-06-14T11:11:06;21.90;99.90
46438;DHT22;32137;48.728;9.142;2023-06-14T11:13:33;21.90;99.90
46438;DHT22;32137;48.728;9.142;2023-06-14T11:15:59;22.10;99.90
46438;DHT22;32137;48.728;9.142;2023-06-14T11:18:24;22.20;99.90
46438;DHT22;32137;48.728;9.142;2023-06-14T11:20:50;22.30;99.90
46438;DHT22;32137;48.728;9.142;2023-06-14T11:23:16;22.40;99.90
46438;DHT22;32137;48.728;9.142;2023-06-14T11:25:42;22.50;99.90
46438;DHT22;32137;48.728;9.142;2023-06-14T11:28:08;22.70;99.90
46438;DHT22;32137;48.728;9.142;2023-06-14T11:30:33;23.00;99.90
46438;DHT22;32137;48.728;9.142;2023-06-14T11:32:59;23.40;99.90
46438;DHT22;32137;48.728;9.142;2023-06-14T11:35:26;23.50;99.90
46438;DHT22;32137;48.728;9.142;2023-06-14T11:37:55;23.60;99.90
46438;DHT22;32137;48.728;9.142;2023-06-14T11:40:24;23.90;99.90
46438;DHT22;32137;48.728;9.142;2023-06-14T11:42:58;24.20;99.90
46438;DHT22;32137;48.728;9.142;2023-06-14T11:45:24;25.50;99.90
46438;DHT22;32137;48.728;9.142;2023-06-14T11:47:50;28.00;99.90
46438;DHT22;32137;48.728;9.142;2023-06-14T11:50:16;30.00;99.90
46438;DHT22;32137;48.728;9.142;2023-06-14T11:52:42;31.60;99.90
46438;DHT22;32137;48.728;9.142;2023-06-14T11:55:08;32.40;99.90
46438;DHT22;32137;48.728;9.142;2023-06-14T11:57:34;32.30;99.90
46438;DHT22;32137;48.728;9.142;2023-06-14T12:00:03;31.80;99.90
46438;DHT22;32137;48.728;9.142;2023-06-14T12:02:32;31.60;99.90
46438;DHT22;32137;48.728;9.142;2023-06-14T12:05:04;31.60;99.90
46438;DHT22;32137;48.728;9.142;2023-06-14T12:07:31;31.40;99.90
46438;DHT22;32137;48.728;9.142;2023-06-14T12:12:25;31.40;99.90
46438;DHT22;32137;48.728;9.142;2023-06-14T12:14:51;31.60;99.90
46438;DHT22;32137;48.728;9.142;2023-06-14T12:17:18;31.80;99.90
46438;DHT22;32137;48.728;9.142;2023-06-14T12:19:48;32.10;99.90
46438;DHT22;32137;48.728;9.142;2023-06-14T12:22:14;32.40;99.90
46438;DHT22;32137;48.728;9.142;2023-06-14T12:24:43;33.10;99.90
46438;DHT22;32137;48.728;9.142;2023-06-14T12:27:09;33.60;99.90
46438;DHT22;32137;48.728;9.142;2023-06-14T12:29:37;34.20;99.90
46438;DHT22;32137;48.728;9.142;2023-06-14T12:32:02;34.90;99.90
46438;DHT22;32137;48.728;9.142;2023-06-14T12:34:28;35.50;99.90
46438;DHT22;32137;48.728;9.142;2023-06-14T12:36:54;36.20;99.90
46438;DHT22;32137;48.728;9.142;2023-06-14T12:39:20;36.70;99.90
46438;DHT22;32137;48.728;9.142;2023-06-14T12:41:46;37.00;99.90
46438;DHT22;32137;48.728;9.142;2023-06-14T12:44:12;37.70;99.90
46438;DHT22;32137;48.728;9.142;2023-06-14T12:46:41;36.50;99.90
46438;DHT22;32137;48.728;9.142;2023-06-14T12:49:11;34.60;99.90
46438;DHT22;32137;48.728;9.142;2023-06-14T12:51:38;32.90;99.90
46438;DHT22;32137;48.728;9.142;2023-06-14T12:54:04;31.90;99.90
46438;DHT22;32137;48.728;9.142;2023-06-14T12:56:30;32.30;99.90
46438;DHT22;32137;48.728;9.142;2023-06-14T12:58:55;32.60;99.90
46438;DHT22;32137;48.728;9.142;2023-06-14T13:01:21;32.80;99.90
46438;DHT22;32137;48.728;9.142;2023-06-14T13:03:47;31.70;99.90
46438;DHT22;32137;48.728;9.142;2023-06-14T13:06:13;30.80;99.90
46438;DHT22;32137;48.728;9.142;2023-06-14T13:08:39;30.50;99.90
46438;DHT22;32137;48.728;9.142;2023-06-14T13:11:04;30.10;99.90
46438;DHT22;32137;48.728;9.142;2023-06-14T13:13:30;29.80;99.90
46438;DHT22;32137;48.728;9.142;2023-06-14T13:15:56;32.00;99.90
46438;DHT22;32137;48.728;9.142;2023-06-14T13:18:21;34.60;99.90
46438;DHT22;32137;48.728;9.142;2023-06-14T13:20:47;36.30;99.90
46438;DHT22;32137;48.728;9.142;2023-06-14T13:23:13;37.40;99.90
46438;DHT22;32137;48.728;9.142;2023-06-14T13:25:40;38.30;99.90
46438;DHT22;32137;48.728;9.142;2023-06-14T13:28:06;39.10;99.90
46438;DHT22;32137;48.728;9.142;2023-06-14T13:30:32;40.50;99.90
46438;DHT22;32137;48.728;9.142;2023-06-14T13:32:58;41.20;99.90
46438;DHT22;32137;48.728;9.142;2023-06-14T13:35:24;41.70;99.90
46438;DHT22;32137;48.728;9.142;2023-06-14T13:37:50;41.50;99.90
46438;DHT22;32137;48.728;9.142;2023-06-14T13:40:16;41.70;99.90
46438;DHT22;32137;48.728;9.142;2023-06-14T13:42:42;39.00;99.90
46438;DHT22;32137;48.728;9.142;2023-06-14T13:45:09;36.60;99.90
46438;DHT22;32137;48.728;9.142;2023-06-14T13:47:35;34.60;99.90
46438;DHT22;32137;48.728;9.142;2023-06-14T13:50:01;33.20;99.90
46438;DHT22;32137;48.728;9.142;2023-06-14T13:52:28;32.20;99.90
46438;DHT22;32137;48.728;9.142;2023-06-14T13:54:53;32.20;99.90
46438;DHT22;32137;48.728;9.142;2023-06-14T13:57:19;32.70;99.90
46438;DHT22;32137;48.728;9.142;2023-06-14T13:59:45;32.80;99.90
46438;DHT22;32137;48.728;9.142;2023-06-14T14:02:11;33.40;99.90
46438;DHT22;32137;48.728;9.142;2023-06-14T14:04:38;33.80;99.90
46438;DHT22;32137;48.728;9.142;2023-06-14T14:07:05;33.60;99.90
46438;DHT22;32137;48.728;9.142;2023-06-14T14:09:32;33.30;99.90
46438;DHT22;32137;48.728;9.142;2023-06-14T14:12:01;33.10;99.90
46438;DHT22;32137;48.728;9.142;2023-06-14T14:14:31;32.90;99.90
46438;DHT22;32137;48.728;9.142;2023-06-14T14:16:57;32.70;99.90
46438;DHT22;32137;48.728;9.142;2023-06-14T14:19:23;32.60;99.90
46438;DHT22;32137;48.728;9.142;2023-06-14T14:21:49;32.80;99.90
46438;DHT22;32137;48.728;9.142;2023-06-14T14:24:15;32.80;99.90
46438;DHT22;32137;48.728;9.142;2023-06-14T14:26:41;32.80;99.90
46438;DHT22;32137;48.728;9.142;2023-06-14T14:29:08;32.90;99.90
46438;DHT22;32137;48.728;9.142;2023-06-14T14:31:34;32.80;99.90
46438;DHT22;32137;48.728;9.142;2023-06-14T14:34:00;32.60;99.90
46438;DHT22;32137;48.728;9.142;2023-06-14T14:36:25;32.60;99.90
46438;DHT22;32137;48.728;9.142;2023-06-14T14:38:51;32.30;99.90
46438;DHT22;32137;48.728;9.142;2023-06-14T14:41:17;32.30;99.90
46438;DHT22;32137;48.728;9.142;2023-06-14T14:43:42;32.40;99.90
46438;DHT22;32137;48.728;9.142;2023-06-14T14:46:08;32.50;99.90
46438;DHT22;32137;48.728;9.142;2023-06-14T14:48:33;32.40;99.90
46438;DHT22;32137;48.728;9.142;2023-06-14T14:50:59;32.50;99.90
46438;DHT22;32137;48.728;9.142;2023-06-14T14:53:25;32.20;99.90
46438;DHT22;32137;48.728;9.142;2023-06-14T14:55:50;31.80;99.90
46438;DHT22;32137;48.728;9.142;2023-06-14T14:58:16;31.40;99.90
46438;DHT22;32137;48.728;9.142;2023-06-14T15:00:45;31.00;99.90
46438;DHT22;32137;48.728;9.142;2023-06-14T15:03:11;30.70;99.90
46438;DHT22;32137;48.728;9.142;2023-06-14T15:05:37;30.40;99.90
46438;DHT22;32137;48.728;9.142;2023-06-14T15:08:03;30.20;99.90
46438;DHT22;32137;48.728;9.142;2023-06-14T15:10:29;30.10;99.90
46438;DHT22;32137;48.728;9.142;2023-06-14T15:12:55;30.20;99.90
46438;DHT22;32137;48.728;9.142;2023-06-14T15:15:22;30.40;99.90
46438;DHT22;32137;48.728;9.142;2023-06-14T15:17:47;30.30;99.90
46438;DHT22;32137;48.728;9.142;2023-06-14T15:20:13;30.10;99.90
46438;DHT22;32137;48.728;9.142;2023-06-14T15:22:40;29.90;99.90
46438;DHT22;32137;48.728;9.142;2023-06-14T15:25:06;30.00;99.90
46438;DHT22;32137;48.728;9.142;2023-06-14T15:27:31;30.20;99.90
46438;DHT22;32137;48.728;9.142;2023-06-14T15:29:57;30.30;99.90
46438;DHT22;32137;48.728;9.142;2023-06-14T15:32:23;30.50;99.90
46438;DHT22;32137;48.728;9.142;2023-06-14T15:34:48;30.60;99.90
46438;DHT22;32137;48.728;9.142;2023-06-14T15:37:14;30.70;99.90
46438;DHT22;32137;48.728;9.142;2023-06-14T15:39:39;30.70;99.90
46438;DHT22;32137;48.728;9.142;2023-06-14T15:42:05;30.50;99.90
46438;DHT22;32137;48.728;9.142;2023-06-14T15:44:31;30.50;99.90